Jsp Bora — V2CQ4 — position and weather

sailwx.info

Track history (hours):
 
Tides and Currents Weather Stations Pressure Air Temp Water Temp Dewpoint Dewpoint Depression Visibility Wind Speed Wind Dir Waves Ship Positions

Jsp Bora

Last reported at 2017-Apr-23 20:43 UTC. Time now 2017-Apr-24 01:39 UTC.
Position N 35°45' W 000°38'.

Length 148 m; draft 8.4 m.

Type: Ship (hazmat cat A). MMSI: 305079000.

Date/timePositionNaut miles runAvg speedWind from/ knotsBaromVisibWave heightAir tempDewpointWater temp
2017-Apr-23 20:43N 35°45' W 000°38'0 0.1
2017-Apr-23 20:25N 35°45' W 000°38'0 0.0
2017-Apr-23 19:55N 35°45' W 000°38'0 0.0
2017-Apr-23 19:13N 35°45' W 000°38'0 0.1
2017-Apr-23 18:46N 35°45' W 000°38'0 0.0
2017-Apr-23 18:25N 35°45' W 000°38'0 0.0
2017-Apr-23 17:55N 35°45' W 000°38'0 0.0
2017-Apr-23 17:25N 35°45' W 000°38'0 0.0
2017-Apr-23 16:55N 35°45' W 000°38'0 0.1
2017-Apr-23 16:25N 35°45' W 000°38'0 0.0
2017-Apr-23 13:42N 35°45' W 000°38'  
2017-Apr-18 22:42N 35°45' W 000°38'0 0.0
2017-Apr-18 20:22N 35°45' W 000°38'1 0.3
2017-Apr-18 17:59N 35°44' W 000°39'1 1.4
2017-Apr-18 17:29N 35°43' W 000°38'0 0.0
2017-Apr-18 16:59N 35°43' W 000°38'0 0.2
2017-Apr-18 16:28N 35°43' W 000°38'0 0.0
2017-Apr-18 13:17N 35°43' W 000°38'  
2017-Apr-16 04:20N 39°10' E 001°05'4 9.0
2017-Apr-16 03:55N 39°14' E 001°07'4 8.9
2017-Apr-16 03:28N 39°18' E 001°09'14 8.8
2017-Apr-16 01:54N 39°30' E 001°16'8 8.5
2017-Apr-16 00:59N 39°38' E 001°19'4 8.4
2017-Apr-16 00:30N 39°41' E 001°21'4 8.4
2017-Apr-16 00:00N 39°45' E 001°23'4 8.6
2017-Apr-15 23:30N 39°49' E 001°25'4 8.5
2017-Apr-15 23:00N 39°53' E 001°27'4 8.3
2017-Apr-15 22:30N 39°57' E 001°29'4 8.5
2017-Apr-15 22:00N 40°01' E 001°31'4 8.8
2017-Apr-15 21:30N 40°05' E 001°33'4 8.9
2017-Apr-15 21:00N 40°09' E 001°35'4 8.8
2017-Apr-15 20:30N 40°14' E 001°37'4 8.9
2017-Apr-15 20:00N 40°18' E 001°39'4 8.9
2017-Apr-15 19:30N 40°22' E 001°41'5 8.9
2017-Apr-15 19:00N 40°26' E 001°44'4 8.7
2017-Apr-15 18:30N 40°30' E 001°46'4 8.8
2017-Apr-15 18:00N 40°34' E 001°48'5 8.9
2017-Apr-15 17:30N 40°38' E 001°50'5 9.0
2017-Apr-15 17:00N 40°43' E 001°52'5 9.2
2017-Apr-15 16:30N 40°47' E 001°54'5 9.2
2017-Apr-15 16:00N 40°51' E 001°57'5 9.1
2017-Apr-15 15:30N 40°55' E 001°59'4 9.0
2017-Apr-15 15:00N 40°59' E 002°01'4 8.9
2017-Apr-15 14:30N 41°04' E 002°03'9 8.8
2017-Apr-15 13:30N 41°12' E 002°08'4 8.7
2017-Apr-15 13:00N 41°16' E 002°10'3 6.2
2017-Apr-15 12:29N 41°19' E 002°09'1 1.6
2017-Apr-15 11:59N 41°18' E 002°09'0 0.0
2017-Apr-15 09:43N 41°18' E 002°09'0 0.0
2017-Apr-15 09:30N 41°18' E 002°09'0 0.0
2017-Apr-15 08:30N 41°18' E 002°09'0 0.0
2017-Apr-15 07:59N 41°18' E 002°09'0 0.0
2017-Apr-15 07:23N 41°18' E 002°09'0 0.0
2017-Apr-15 06:53N 41°18' E 002°09'0 0.0
2017-Apr-15 06:29N 41°18' E 002°09'0 0.0
2017-Apr-15 04:36N 41°18' E 002°09'0 0.1
2017-Apr-15 04:29N 41°18' E 002°09'1 2.5
2017-Apr-15 04:00N 41°19' E 002°10'3 6.2
2017-Apr-15 03:30N 41°16' E 002°10'4 7.5
2017-Apr-15 02:59N 41°13' E 002°07'5 7.6
2017-Apr-15 02:19N 41°08' E 002°03'2 7.8
2017-Apr-15 02:00N 41°07' E 002°01'4 8.1
2017-Apr-15 01:30N 41°03' E 001°58'5 8.4
2017-Apr-15 00:57N 40°60' E 001°54'4 8.3
2017-Apr-15 00:30N 40°56' E 001°51'4 8.4
2017-Apr-15 00:00N 40°53' E 001°48'4 8.3
2017-Apr-14 23:29N 40°50' E 001°45'4 8.1
2017-Apr-14 23:00N 40°46' E 001°42'4 8.1
2017-Apr-14 22:30N 40°43' E 001°38'4 8.2
2017-Apr-14 22:00N 40°40' E 001°35'4 8.2
2017-Apr-14 21:30N 40°37' E 001°31'4 8.2
2017-Apr-14 21:00N 40°35' E 001°27'4 8.1
2017-Apr-14 20:30N 40°33' E 001°22'4 8.1
2017-Apr-14 20:00N 40°31' E 001°18'4 8.2
2017-Apr-14 19:30N 40°29' E 001°13'4 8.3
2017-Apr-14 19:00N 40°27' E 001°08'5 8.1
2017-Apr-14 18:23N 40°24' E 001°03'3 8.3
2017-Apr-14 18:00N 40°22' E 000°60'4 8.5
2017-Apr-14 17:30N 40°19' E 000°56'5 8.5
2017-Apr-14 16:51N 40°15' E 000°51'3 8.5
2017-Apr-14 16:30N 40°13' E 000°48'4 8.6
2017-Apr-14 16:00N 40°10' E 000°44'4 8.6
2017-Apr-14 15:30N 40°07' E 000°40'4 8.5
2017-Apr-14 15:00N 40°04' E 000°36'4 8.6
2017-Apr-14 14:30N 40°00' E 000°32'8 8.3
2017-Apr-14 13:29N 39°55' E 000°24'11 8.4
2017-Apr-14 12:10N 39°47' E 000°14'10 8.2
2017-Apr-14 10:54N 39°40' E 000°04'7 8.3
2017-Apr-14 10:07N 39°36' W 000°02'1 8.6
2017-Apr-14 10:00N 39°35' W 000°03'4 8.7
2017-Apr-14 09:30N 39°32' W 000°07'4 8.6
2017-Apr-14 09:00N 39°29' W 000°11'4 8.7
2017-Apr-14 08:30N 39°26' W 000°15'3 1.3
2017-Apr-14 06:15N 39°26' W 000°19'0 0.0
2017-Apr-14 05:39N 39°26' W 000°19'0 0.0
2017-Apr-14 05:27N 39°26' W 000°19'0 0.0
2017-Apr-14 05:00N 39°26' W 000°19'0 0.0
2017-Apr-14 04:15N 39°26' W 000°19'0 0.0
2017-Apr-14 04:00N 39°26' W 000°19'0 0.0
2017-Apr-14 03:30N 39°26' W 000°19'0 0.0
2017-Apr-14 03:00N 39°26' W 000°19'0 0.0
2017-Apr-14 02:27N 39°26' W 000°19'0 0.0
2017-Apr-14 02:00N 39°26' W 000°19'0 0.0
2017-Apr-14 01:27N 39°26' W 000°19'0 0.0
2017-Apr-14 01:00N 39°26' W 000°19'0 0.0
2017-Apr-13 23:51N 39°26' W 000°19'0 0.0
2017-Apr-13 23:21N 39°26' W 000°19'0 0.0
2017-Apr-13 22:57N 39°26' W 000°19'0 0.0
2017-Apr-13 22:27N 39°26' W 000°19'0 0.0
2017-Apr-13 21:57N 39°26' W 000°19'0 0.0
2017-Apr-13 21:27N 39°26' W 000°19'0 0.0
2017-Apr-13 21:00N 39°26' W 000°19'  
Track history (hours):
 
Tides and Currents Weather Stations Pressure Air Temp Water Temp Dewpoint Dewpoint Depression Visibility Wind Speed Wind Dir Waves Ship Positions

Jsp Bora

Last reported at 2017-Apr-23 20:43 UTC. Time now 2017-Apr-24 01:39 UTC.
Position N 35°45' W 000°38'.

Length 148 m; draft 8.4 m.

Type: Ship (hazmat cat A). MMSI: 305079000.

Date/timePositionNaut miles runAvg speedWind from/ knotsBaromVisibWave heightAir tempDewpointWater temp
2017-Apr-23 20:43N 35°45' W 000°38'0 0.1
2017-Apr-23 20:25N 35°45' W 000°38'0 0.0
2017-Apr-23 19:55N 35°45' W 000°38'0 0.0
2017-Apr-23 19:13N 35°45' W 000°38'0 0.1
2017-Apr-23 18:46N 35°45' W 000°38'0 0.0
2017-Apr-23 18:25N 35°45' W 000°38'0 0.0
2017-Apr-23 17:55N 35°45' W 000°38'0 0.0
2017-Apr-23 17:25N 35°45' W 000°38'0 0.0
2017-Apr-23 16:55N 35°45' W 000°38'0 0.1
2017-Apr-23 16:25N 35°45' W 000°38'0 0.0
2017-Apr-23 13:42N 35°45' W 000°38'  
2017-Apr-18 22:42N 35°45' W 000°38'0 0.0
2017-Apr-18 20:22N 35°45' W 000°38'1 0.3
2017-Apr-18 17:59N 35°44' W 000°39'1 1.4
2017-Apr-18 17:29N 35°43' W 000°38'0 0.0
2017-Apr-18 16:59N 35°43' W 000°38'0 0.2
2017-Apr-18 16:28N 35°43' W 000°38'0 0.0
2017-Apr-18 13:17N 35°43' W 000°38'  
2017-Apr-16 04:20N 39°10' E 001°05'4 9.0
2017-Apr-16 03:55N 39°14' E 001°07'4 8.9
2017-Apr-16 03:28N 39°18' E 001°09'14 8.8
2017-Apr-16 01:54N 39°30' E 001°16'8 8.5
2017-Apr-16 00:59N 39°38' E 001°19'4 8.4
2017-Apr-16 00:30N 39°41' E 001°21'4 8.4
2017-Apr-16 00:00N 39°45' E 001°23'4 8.6
2017-Apr-15 23:30N 39°49' E 001°25'4 8.5
2017-Apr-15 23:00N 39°53' E 001°27'4 8.3
2017-Apr-15 22:30N 39°57' E 001°29'4 8.5
2017-Apr-15 22:00N 40°01' E 001°31'4 8.8
2017-Apr-15 21:30N 40°05' E 001°33'4 8.9
2017-Apr-15 21:00N 40°09' E 001°35'4 8.8
2017-Apr-15 20:30N 40°14' E 001°37'4 8.9
2017-Apr-15 20:00N 40°18' E 001°39'4 8.9
2017-Apr-15 19:30N 40°22' E 001°41'5 8.9
2017-Apr-15 19:00N 40°26' E 001°44'4 8.7
2017-Apr-15 18:30N 40°30' E 001°46'4 8.8
2017-Apr-15 18:00N 40°34' E 001°48'5 8.9
2017-Apr-15 17:30N 40°38' E 001°50'5 9.0
2017-Apr-15 17:00N 40°43' E 001°52'5 9.2
2017-Apr-15 16:30N 40°47' E 001°54'5 9.2
2017-Apr-15 16:00N 40°51' E 001°57'5 9.1
2017-Apr-15 15:30N 40°55' E 001°59'4 9.0
2017-Apr-15 15:00N 40°59' E 002°01'4 8.9
2017-Apr-15 14:30N 41°04' E 002°03'9 8.8
2017-Apr-15 13:30N 41°12' E 002°08'4 8.7
2017-Apr-15 13:00N 41°16' E 002°10'3 6.2
2017-Apr-15 12:29N 41°19' E 002°09'1 1.6
2017-Apr-15 11:59N 41°18' E 002°09'0 0.0
2017-Apr-15 09:43N 41°18' E 002°09'0 0.0
2017-Apr-15 09:30N 41°18' E 002°09'0 0.0
2017-Apr-15 08:30N 41°18' E 002°09'0 0.0
2017-Apr-15 07:59N 41°18' E 002°09'0 0.0
2017-Apr-15 07:23N 41°18' E 002°09'0 0.0
2017-Apr-15 06:53N 41°18' E 002°09'0 0.0
2017-Apr-15 06:29N 41°18' E 002°09'0 0.0
2017-Apr-15 04:36N 41°18' E 002°09'0 0.1
2017-Apr-15 04:29N 41°18' E 002°09'1 2.5
2017-Apr-15 04:00N 41°19' E 002°10'3 6.2
2017-Apr-15 03:30N 41°16' E 002°10'4 7.5
2017-Apr-15 02:59N 41°13' E 002°07'5 7.6
2017-Apr-15 02:19N 41°08' E 002°03'2 7.8
2017-Apr-15 02:00N 41°07' E 002°01'4 8.1
2017-Apr-15 01:30N 41°03' E 001°58'5 8.4
2017-Apr-15 00:57N 40°60' E 001°54'4 8.3
2017-Apr-15 00:30N 40°56' E 001°51'4 8.4
2017-Apr-15 00:00N 40°53' E 001°48'4 8.3
2017-Apr-14 23:29N 40°50' E 001°45'4 8.1
2017-Apr-14 23:00N 40°46' E 001°42'4 8.1
2017-Apr-14 22:30N 40°43' E 001°38'4 8.2
2017-Apr-14 22:00N 40°40' E 001°35'4 8.2
2017-Apr-14 21:30N 40°37' E 001°31'4 8.2
2017-Apr-14 21:00N 40°35' E 001°27'4 8.1
2017-Apr-14 20:30N 40°33' E 001°22'4 8.1
2017-Apr-14 20:00N 40°31' E 001°18'4 8.2
2017-Apr-14 19:30N 40°29' E 001°13'4 8.3
2017-Apr-14 19:00N 40°27' E 001°08'5 8.1
2017-Apr-14 18:23N 40°24' E 001°03'3 8.3
2017-Apr-14 18:00N 40°22' E 000°60'4 8.5
2017-Apr-14 17:30N 40°19' E 000°56'5 8.5
2017-Apr-14 16:51N 40°15' E 000°51'3 8.5
2017-Apr-14 16:30N 40°13' E 000°48'4 8.6
2017-Apr-14 16:00N 40°10' E 000°44'4 8.6
2017-Apr-14 15:30N 40°07' E 000°40'4 8.5
2017-Apr-14 15:00N 40°04' E 000°36'4 8.6
2017-Apr-14 14:30N 40°00' E 000°32'8 8.3
2017-Apr-14 13:29N 39°55' E 000°24'11 8.4
2017-Apr-14 12:10N 39°47' E 000°14'10 8.2
2017-Apr-14 10:54N 39°40' E 000°04'7 8.3
2017-Apr-14 10:07N 39°36' W 000°02'1 8.6
2017-Apr-14 10:00N 39°35' W 000°03'4 8.7
2017-Apr-14 09:30N 39°32' W 000°07'4 8.6
2017-Apr-14 09:00N 39°29' W 000°11'4 8.7
2017-Apr-14 08:30N 39°26' W 000°15'3 1.3
2017-Apr-14 06:15N 39°26' W 000°19'0 0.0
2017-Apr-14 05:39N 39°26' W 000°19'0 0.0
2017-Apr-14 05:27N 39°26' W 000°19'0 0.0
2017-Apr-14 05:00N 39°26' W 000°19'0 0.0
2017-Apr-14 04:15N 39°26' W 000°19'0 0.0
2017-Apr-14 04:00N 39°26' W 000°19'0 0.0
2017-Apr-14 03:30N 39°26' W 000°19'0 0.0
2017-Apr-14 03:00N 39°26' W 000°19'0 0.0
2017-Apr-14 02:27N 39°26' W 000°19'0 0.0
2017-Apr-14 02:00N 39°26' W 000°19'0 0.0
2017-Apr-14 01:27N 39°26' W 000°19'0 0.0
2017-Apr-14 01:00N 39°26' W 000°19'0 0.0
2017-Apr-13 23:51N 39°26' W 000°19'0 0.0
2017-Apr-13 23:21N 39°26' W 000°19'0 0.0
2017-Apr-13 22:57N 39°26' W 000°19'0 0.0
2017-Apr-13 22:27N 39°26' W 000°19'0 0.0
2017-Apr-13 21:57N 39°26' W 000°19'0 0.0
2017-Apr-13 21:27N 39°26' W 000°19'0 0.0
2017-Apr-13 21:00N 39°26' W 000°19'  

Dump ship's entire track history